createdAt,value
2019-06-20T00:01:53.377Z,70.79
2019-06-20T00:04:22.667Z,70.91
2019-06-20T00:06:51.959Z,72.15
2019-06-20T00:09:21.248Z,71.00
2019-06-20T00:11:50.550Z,72.85
2019-06-20T00:14:19.834Z,72.52
2019-06-20T00:16:49.157Z,73.10
2019-06-20T00:19:18.582Z,74.42
2019-06-20T00:21:47.914Z,73.13
2019-06-20T00:24:17.189Z,73.10
2019-06-20T00:26:46.573Z,72.91
2019-06-20T00:29:15.823Z,73.79
2019-06-20T00:31:45.119Z,73.14
2019-06-20T00:34:14.399Z,73.70
2019-06-20T00:36:43.672Z,73.89
2019-06-20T00:39:12.948Z,74.61
2019-06-20T00:41:42.256Z,73.71
2019-06-20T00:44:11.576Z,73.79
2019-06-20T00:46:40.881Z,73.39
2019-06-20T00:49:10.227Z,72.97
2019-06-20T00:51:39.497Z,73.78
2019-06-20T00:54:08.748Z,79.55
2019-06-20T00:56:38.027Z,71.69
2019-06-20T00:59:07.350Z,70.65
2019-06-20T01:01:36.659Z,71.05
2019-06-20T01:04:05.961Z,71.33
2019-06-20T01:06:35.245Z,70.51
2019-06-20T01:09:06.400Z,73.81
2019-06-20T01:11:35.668Z,74.59
2019-06-20T01:14:05.683Z,74.31
2019-06-20T01:16:34.972Z,73.79
2019-06-20T01:19:04.404Z,73.28
2019-06-20T01:21:33.676Z,74.75
2019-06-20T01:24:02.976Z,75.16
2019-06-20T01:26:32.228Z,75.30
2019-06-20T01:29:01.577Z,74.07
2019-06-20T01:31:30.944Z,74.16
2019-06-20T01:34:00.378Z,73.53
2019-06-20T01:36:29.776Z,72.74
2019-06-20T01:38:59.177Z,72.71
2019-06-20T01:41:28.462Z,72.65
2019-06-20T01:43:59.208Z,73.37
2019-06-20T01:46:28.573Z,73.09
2019-06-20T01:48:57.890Z,73.71
2019-06-20T01:51:27.208Z,73.80
2019-06-20T01:53:56.519Z,73.54
2019-06-20T01:56:25.785Z,72.88
2019-06-20T01:58:55.098Z,73.36
2019-06-20T02:01:24.341Z,73.02
2019-06-20T02:03:54.502Z,72.89
2019-06-20T02:06:23.780Z,72.20
2019-06-20T02:08:53.119Z,72.44
2019-06-20T02:11:22.342Z,72.64
2019-06-20T02:14:06.537Z,72.63
2019-06-20T02:16:22.697Z,71.83
2019-06-20T02:18:52.031Z,73.13
2019-06-20T02:21:21.271Z,73.93
2019-06-20T02:23:50.556Z,73.63
2019-06-20T02:26:19.887Z,72.89
2019-06-20T02:28:49.188Z,73.05
2019-06-20T02:31:19.125Z,72.47
2019-06-20T02:33:48.402Z,73.60
2019-06-20T02:36:17.695Z,74.33
2019-06-20T02:38:46.965Z,73.35
2019-06-20T02:41:16.429Z,73.06
2019-06-20T02:43:45.700Z,73.01
2019-06-20T02:46:14.995Z,73.70
2019-06-20T02:48:44.250Z,73.81
2019-06-20T02:51:13.570Z,73.58
2019-06-20T02:53:43.110Z,73.39
2019-06-20T02:56:12.397Z,73.12
2019-06-20T02:58:41.681Z,73.48
2019-06-20T03:01:11.000Z,73.25
2019-06-20T03:03:40.278Z,74.46
2019-06-20T03:06:09.943Z,73.31
2019-06-20T03:08:39.278Z,72.24
2019-06-20T03:11:08.713Z,71.52
2019-06-20T03:13:38.182Z,72.54
2019-06-20T03:16:07.526Z,72.09
2019-06-20T03:18:36.932Z,70.97
2019-06-20T03:21:06.339Z,70.85
2019-06-20T03:23:37.144Z,71.82
2019-06-20T03:26:06.550Z,71.83
2019-06-20T03:28:35.871Z,72.09
2019-06-20T03:31:05.212Z,72.17
2019-06-20T03:33:34.528Z,71.77
2019-06-20T03:36:03.781Z,73.13
2019-06-20T03:38:33.037Z,73.13
2019-06-20T03:41:02.326Z,72.48
2019-06-20T03:43:31.605Z,72.26
2019-06-20T03:46:00.874Z,71.60
2019-06-20T03:48:30.143Z,71.31
2019-06-20T03:50:59.521Z,72.67
2019-06-20T03:53:28.752Z,71.01
2019-06-20T03:55:58.029Z,71.79
2019-06-20T03:58:27.332Z,71.88
2019-06-20T04:00:56.580Z,71.55
2019-06-20T04:03:25.899Z,72.16
2019-06-20T04:05:55.180Z,70.97
2019-06-20T04:08:24.456Z,70.24
2019-06-20T04:10:53.830Z,70.75
2019-06-20T04:13:23.167Z,71.90
2019-06-20T04:15:52.448Z,71.11
2019-06-20T04:18:21.830Z,71.08
2019-06-20T04:20:51.129Z,71.21
2019-06-20T04:23:20.402Z,72.55
2019-06-20T04:25:49.680Z,71.55
2019-06-20T04:28:18.957Z,71.65
2019-06-20T04:30:48.232Z,72.81
2019-06-20T04:33:17.524Z,72.42
2019-06-20T04:35:46.775Z,71.23
2019-06-20T04:38:16.068Z,70.11
2019-06-20T04:40:45.327Z,72.05
2019-06-20T04:43:14.629Z,71.85
2019-06-20T04:46:05.905Z,70.80
2019-06-20T04:48:35.199Z,70.88
2019-06-20T04:51:04.542Z,71.02
2019-06-20T04:53:33.851Z,70.42
2019-06-20T04:56:05.578Z,70.86
2019-06-20T04:58:34.124Z,69.57
2019-06-20T05:01:03.412Z,69.89
2019-06-20T05:03:35.803Z,70.03
2019-06-20T05:06:05.034Z,70.20
2019-06-20T05:08:34.317Z,70.70
2019-06-20T05:11:03.704Z,69.96
2019-06-20T05:13:33.110Z,70.56
2019-06-20T05:16:02.509Z,69.54
2019-06-20T05:18:31.877Z,70.37
2019-06-20T05:21:01.179Z,69.85
2019-06-20T05:23:30.448Z,69.47
2019-06-20T05:25:59.772Z,70.15
2019-06-20T05:28:29.072Z,69.65
2019-06-20T05:30:58.388Z,68.56
2019-06-20T05:33:27.649Z,68.77
2019-06-20T05:35:56.927Z,67.12
2019-06-20T05:38:26.188Z,67.90
2019-06-20T05:40:55.479Z,68.95
2019-06-20T05:43:24.763Z,69.82
2019-06-20T05:46:08.425Z,69.74
2019-06-20T05:48:25.368Z,69.63
2019-06-20T05:50:54.783Z,68.90
2019-06-20T05:53:24.044Z,68.70
2019-06-20T05:55:53.415Z,68.57
2019-06-20T05:58:22.864Z,67.42
2019-06-20T06:00:52.174Z,67.81
2019-06-20T06:03:21.429Z,67.58
2019-06-20T06:05:52.148Z,68.77
2019-06-20T06:08:21.388Z,68.81
2019-06-20T06:10:53.810Z,67.43
2019-06-20T06:13:23.101Z,69.24
2019-06-20T06:15:52.412Z,64.96
2019-06-20T06:18:21.840Z,65.47
2019-06-20T06:20:51.164Z,65.24
2019-06-20T06:23:20.462Z,64.97
2019-06-20T06:25:49.708Z,61.49
2019-06-20T06:28:19.057Z,60.45
2019-06-20T06:30:48.362Z,60.85
2019-06-20T06:33:17.635Z,61.02
2019-06-20T06:35:46.891Z,61.68
2019-06-20T06:38:22.155Z,61.62
2019-06-20T06:40:47.176Z,60.49
2019-06-20T06:43:16.449Z,61.29
2019-06-20T06:45:45.720Z,61.12
2019-06-20T06:48:14.986Z,60.90
2019-06-20T06:50:44.285Z,60.83
2019-06-20T06:53:13.633Z,60.29
2019-06-20T06:55:42.901Z,61.61
2019-06-20T06:58:12.362Z,61.73
2019-06-20T07:00:41.667Z,62.82
2019-06-20T07:03:10.965Z,61.50
2019-06-20T07:05:40.267Z,61.29
2019-06-20T07:08:09.558Z,60.53
2019-06-20T07:10:38.816Z,59.72
2019-06-20T07:13:08.206Z,58.68
2019-06-20T07:15:37.515Z,59.38
2019-06-20T07:18:06.899Z,58.22
2019-06-20T07:20:36.175Z,58.07
2019-06-20T07:23:05.509Z,57.59
2019-06-20T07:26:00.845Z,58.27
2019-06-20T07:28:30.213Z,57.41
2019-06-20T07:30:59.478Z,57.39
2019-06-20T07:33:28.728Z,56.21
2019-06-20T07:35:58.039Z,56.55
2019-06-20T07:41:55.488Z,56.99
2019-06-20T07:44:24.780Z,56.55
2019-06-20T07:46:54.081Z,57.78
2019-06-20T07:49:23.426Z,56.79
2019-06-20T07:51:52.717Z,57.62
2019-06-20T07:54:22.061Z,57.17
2019-06-20T07:56:51.340Z,55.78
2019-06-20T07:59:20.666Z,55.50
2019-06-20T08:01:50.087Z,57.01
2019-06-20T08:04:19.359Z,56.35
2019-06-20T08:06:48.661Z,56.34
2019-06-20T08:09:17.948Z,56.91
2019-06-20T08:11:47.277Z,57.13
2019-06-20T08:14:16.994Z,55.53
2019-06-20T08:16:46.345Z,55.04
2019-06-20T08:19:15.781Z,56.37
2019-06-20T08:21:45.133Z,56.79
2019-06-20T08:24:16.219Z,54.32
2019-06-20T08:26:45.730Z,55.36
2019-06-20T08:29:21.183Z,56.20
2019-06-20T08:31:46.292Z,54.35
2019-06-20T08:34:15.555Z,53.90
2019-06-20T08:36:44.962Z,53.81
2019-06-20T08:39:14.472Z,54.92
2019-06-20T08:41:43.981Z,55.74
2019-06-20T08:44:17.621Z,53.84
2019-06-20T08:46:45.724Z,52.31
2019-06-20T08:49:15.134Z,51.65
2019-06-20T08:51:44.434Z,53.64
2019-06-20T08:58:05.761Z,50.93
2019-06-20T09:04:14.804Z,51.02
2019-06-20T09:06:44.345Z,50.58
2019-06-20T09:09:13.747Z,50.50
2019-06-20T09:11:43.049Z,50.57
2019-06-20T09:14:38.333Z,50.33
2019-06-20T09:17:29.864Z,51.11
2019-06-20T09:20:00.257Z,50.04
2019-06-20T09:22:29.677Z,48.91
2019-06-20T09:24:59.081Z,48.00
2019-06-20T09:27:28.504Z,47.23
2019-06-20T09:29:58.529Z,49.15
2019-06-20T09:32:28.002Z,50.17
2019-06-20T09:34:58.681Z,49.44
2019-06-20T09:37:28.087Z,48.84
2019-06-20T09:39:57.619Z,48.99
2019-06-20T09:42:27.214Z,48.33
2019-06-20T09:44:56.542Z,46.71
2019-06-20T09:47:25.776Z,46.85
2019-06-20T09:49:56.015Z,46.34
2019-06-20T09:52:26.135Z,45.25
2019-06-20T09:54:56.131Z,45.61
2019-06-20T09:57:25.381Z,45.77
2019-06-20T10:00:05.633Z,44.78
2019-06-20T10:02:25.771Z,44.90
2019-06-20T10:04:56.327Z,44.13
2019-06-20T10:07:25.945Z,43.83
2019-06-20T10:09:56.303Z,42.47
2019-06-20T10:12:25.723Z,41.25
2019-06-20T10:14:56.164Z,42.37
2019-06-20T10:17:25.540Z,42.93
2019-06-20T10:19:56.240Z,42.73
2019-06-20T10:22:25.615Z,42.06
2019-06-20T10:24:54.939Z,43.20
2019-06-20T10:27:24.303Z,45.13
2019-06-20T10:30:31.912Z,45.30
2019-06-20T10:33:01.249Z,45.18
2019-06-20T10:35:30.545Z,44.45
2019-06-20T10:37:59.861Z,44.86
2019-06-20T10:40:29.358Z,44.70
2019-06-20T10:42:58.648Z,45.99
2019-06-20T10:45:28.295Z,46.70
2019-06-20T10:47:57.760Z,44.99
2019-06-20T10:50:27.858Z,44.29
2019-06-20T10:52:57.167Z,45.71
2019-06-20T10:55:26.621Z,44.08
2019-06-20T10:57:55.885Z,43.78
2019-06-20T11:00:31.278Z,42.60
2019-06-20T11:02:57.054Z,41.80
2019-06-20T11:05:26.532Z,43.05
2019-06-20T11:07:55.834Z,42.07
2019-06-20T11:10:26.688Z,43.40
2019-06-20T11:12:56.518Z,44.31
2019-06-20T11:15:28.430Z,43.39
2019-06-20T11:17:57.768Z,43.15
2019-06-20T11:20:27.395Z,43.65
2019-06-20T11:22:56.678Z,44.35
2019-06-20T11:25:26.050Z,44.87
2019-06-20T11:27:55.361Z,43.70
2019-06-20T11:30:25.394Z,42.15
2019-06-20T11:32:54.829Z,41.68
2019-06-20T11:35:24.102Z,41.88
2019-06-20T11:37:53.408Z,41.79
2019-06-20T11:40:22.720Z,41.01
2019-06-20T11:42:52.076Z,41.51
2019-06-20T11:45:21.626Z,40.19
2019-06-20T11:47:50.936Z,39.94
2019-06-20T11:50:21.770Z,41.56
2019-06-20T11:52:51.171Z,40.38
2019-06-20T11:55:20.669Z,41.28
2019-06-20T11:57:49.955Z,41.30
2019-06-20T12:00:20.915Z,41.15
2019-06-20T12:02:50.495Z,42.64
2019-06-20T12:05:19.947Z,41.78
2019-06-20T12:07:50.028Z,43.00
2019-06-20T12:10:21.556Z,43.81
2019-06-20T12:12:50.972Z,42.19
2019-06-20T12:15:20.789Z,42.26
2019-06-20T12:17:50.231Z,43.37
2019-06-20T12:20:20.623Z,43.82
2019-06-20T12:22:50.843Z,41.86
2019-06-20T12:25:20.447Z,41.86
2019-06-20T12:27:49.904Z,41.88
2019-06-20T12:30:21.879Z,41.27
2019-06-20T12:33:03.481Z,41.46
2019-06-20T12:35:32.843Z,41.53
2019-06-20T12:38:02.179Z,41.37
2019-06-20T12:40:31.499Z,41.59
2019-06-20T12:43:00.918Z,41.96
2019-06-20T12:45:30.294Z,42.22
2019-06-20T12:47:59.595Z,42.60
2019-06-20T12:50:28.914Z,43.95
2019-06-20T12:53:37.727Z,42.63
2019-06-20T13:03:46.266Z,43.67
2019-06-20T13:06:15.684Z,42.54
2019-06-20T13:08:45.238Z,41.85
2019-06-20T13:11:14.623Z,40.65
2019-06-20T13:13:44.401Z,40.65
2019-06-20T13:16:13.789Z,42.53
2019-06-20T13:18:44.628Z,42.53
2019-06-20T13:21:13.998Z,42.23
2019-06-20T13:23:43.276Z,42.23
2019-06-20T13:26:12.595Z,41.37
2019-06-20T13:29:01.651Z,43.11
2019-06-20T13:31:14.439Z,42.74
2019-06-20T13:33:44.736Z,43.33
2019-06-20T13:36:14.180Z,43.33
2019-06-20T13:38:44.519Z,43.10
2019-06-20T13:41:13.927Z,42.09
2019-06-20T13:43:43.249Z,42.64
2019-06-20T13:46:12.564Z,42.64
2019-06-20T13:48:42.634Z,43.19
2019-06-20T13:51:12.823Z,43.97
2019-06-20T13:53:42.676Z,46.10
2019-06-20T13:56:14.952Z,46.99
2019-06-20T13:58:44.806Z,46.24
2019-06-20T14:01:14.311Z,48.34
2019-06-20T14:03:45.316Z,48.31
2019-06-20T14:06:14.737Z,48.39
2019-06-20T14:08:45.868Z,48.96
2019-06-20T14:11:15.041Z,50.12
2019-06-20T14:13:53.163Z,50.46
2019-06-20T14:16:22.461Z,51.70
2019-06-20T14:18:51.749Z,52.35
2019-06-20T14:21:21.056Z,52.93
2019-06-20T14:23:50.353Z,53.30
2019-06-20T14:26:19.662Z,54.35
2019-06-20T14:28:48.953Z,53.19
2019-06-20T14:31:18.264Z,52.98
2019-06-20T14:33:48.508Z,52.58
2019-06-20T14:36:17.808Z,53.91
2019-06-20T14:38:47.389Z,52.46
2019-06-20T14:41:16.672Z,54.09
2019-06-20T14:43:46.182Z,54.58
2019-06-20T14:46:16.803Z,54.95
2019-06-20T14:48:47.323Z,54.89
2019-06-20T14:51:17.144Z,54.05
2019-06-20T14:53:47.244Z,54.27
2019-06-20T14:56:16.492Z,54.46
2019-06-20T14:58:46.724Z,55.30
2019-06-20T15:01:16.093Z,54.30
2019-06-20T15:03:46.108Z,54.36
2019-06-20T15:06:16.527Z,53.46
2019-06-20T15:08:47.241Z,53.16
2019-06-20T15:11:16.954Z,52.86
2019-06-20T15:13:47.626Z,53.92
2019-06-20T15:16:17.427Z,53.63
2019-06-20T15:18:49.814Z,52.51
2019-06-20T15:21:17.739Z,54.04
2019-06-20T15:23:48.833Z,51.14
2019-06-20T15:26:18.066Z,53.43
2019-06-20T15:28:47.998Z,52.83
2019-06-20T15:31:18.443Z,50.36
2019-06-20T15:33:49.191Z,51.27
2019-06-20T15:36:18.751Z,49.16
2019-06-20T15:38:49.371Z,49.52
2019-06-20T15:41:19.094Z,48.39
2019-06-20T15:43:49.800Z,47.81
2019-06-20T15:46:19.271Z,48.79
2019-06-20T15:48:49.207Z,46.58
2019-06-20T15:51:18.589Z,45.80
2019-06-20T15:53:48.550Z,48.55
2019-06-20T15:56:19.603Z,46.44
2019-06-20T15:58:49.059Z,46.77
2019-06-20T16:01:18.409Z,46.90
2019-06-20T16:03:47.833Z,46.70
2019-06-20T16:06:17.297Z,47.27
2019-06-20T16:08:49.501Z,47.28
2019-06-20T16:11:25.867Z,46.87
2019-06-20T16:13:55.494Z,48.02
2019-06-20T16:16:24.937Z,48.71
2019-06-20T16:18:54.418Z,49.44
2019-06-20T16:21:23.799Z,49.53
2019-06-20T16:23:53.274Z,50.71
2019-06-20T16:26:22.718Z,50.92
2019-06-20T16:28:52.087Z,51.26
2019-06-20T16:31:26.796Z,55.46
2019-06-20T16:33:52.703Z,62.71
2019-06-20T16:36:22.069Z,64.78
2019-06-20T16:38:51.458Z,61.66
2019-06-20T16:41:20.755Z,61.71
2019-06-20T16:43:50.041Z,63.86
2019-06-20T16:46:19.911Z,63.63
2019-06-20T16:48:49.577Z,61.70
2019-06-20T16:51:18.805Z,61.90
2019-06-20T16:53:48.577Z,60.96
2019-06-20T16:56:17.845Z,63.02
2019-06-20T16:58:47.163Z,65.48
2019-06-20T17:01:16.431Z,61.77
2019-06-20T17:03:48.185Z,64.91
2019-06-20T17:06:17.532Z,64.54
2019-06-20T17:08:46.895Z,63.90
2019-06-20T17:11:21.898Z,64.86
2019-06-20T17:13:51.234Z,65.08
2019-06-20T17:16:20.547Z,62.99
2019-06-20T17:18:49.927Z,65.92
2019-06-20T17:21:19.181Z,64.48
2019-06-20T17:23:48.670Z,64.43
2019-06-20T17:26:17.941Z,63.31
2019-06-20T17:28:47.268Z,65.83
2019-06-20T17:31:16.551Z,63.92
2019-06-20T17:33:57.087Z,62.12
2019-06-20T17:36:19.042Z,62.05
2019-06-20T17:38:48.322Z,63.74
2019-06-20T17:41:17.904Z,63.30
2019-06-20T17:43:47.216Z,64.67
2019-06-20T17:46:16.650Z,64.44
2019-06-20T17:48:46.036Z,61.32
2019-06-20T17:51:15.332Z,62.58
2019-06-20T17:53:49.988Z,63.59
2019-06-20T17:56:19.305Z,63.66
2019-06-20T17:58:48.634Z,63.50
2019-06-20T18:01:18.261Z,65.23
2019-06-20T18:03:47.546Z,63.48
2019-06-20T18:06:16.840Z,65.42
2019-06-20T18:08:46.117Z,66.91
2019-06-20T18:11:15.413Z,67.37
2019-06-20T18:13:44.695Z,66.05
2019-06-20T18:16:25.422Z,65.32
2019-06-20T18:18:53.674Z,65.40
2019-06-20T18:21:23.022Z,64.74
2019-06-20T18:23:52.318Z,65.96
2019-06-20T18:26:21.712Z,66.25
2019-06-20T18:28:50.989Z,65.08
2019-06-20T18:31:20.300Z,65.84
2019-06-20T18:33:49.599Z,69.23
2019-06-20T18:36:18.865Z,66.87
2019-06-20T18:38:48.202Z,66.22
2019-06-20T18:41:17.502Z,68.74
2019-06-20T18:43:46.813Z,67.99
2019-06-20T18:46:16.141Z,66.96
2019-06-20T18:48:45.479Z,68.46
2019-06-20T18:51:14.790Z,67.21
2019-06-20T18:53:44.091Z,67.43
2019-06-20T18:56:15.474Z,69.76
2019-06-20T18:58:44.812Z,70.08
2019-06-20T19:01:14.203Z,70.11
2019-06-20T19:03:43.530Z,70.04
2019-06-20T19:06:12.932Z,67.92
2019-06-20T19:08:42.300Z,68.51
2019-06-20T19:11:11.732Z,70.38
2019-06-20T19:13:41.198Z,67.95
2019-06-20T19:16:10.570Z,66.48
2019-06-20T19:18:39.899Z,67.14
2019-06-20T19:21:09.232Z,67.52
2019-06-20T19:23:38.590Z,66.93
2019-06-20T19:26:07.986Z,66.91
2019-06-20T19:28:39.933Z,67.76
2019-06-20T19:31:09.230Z,68.59
2019-06-20T19:33:38.505Z,68.78
2019-06-20T19:36:07.805Z,69.04
2019-06-20T19:38:37.071Z,70.77
2019-06-20T19:41:06.369Z,70.26
2019-06-20T19:43:35.676Z,69.72
2019-06-20T19:46:05.020Z,69.82
2019-06-20T19:48:36.651Z,68.21
2019-06-20T19:51:05.527Z,70.95
2019-06-20T19:53:34.832Z,71.08
2019-06-20T19:56:04.132Z,71.37
2019-06-20T19:58:32.492Z,71.15
2019-06-20T20:01:01.812Z,70.11
2019-06-20T20:03:31.144Z,70.05
2019-06-20T20:06:00.427Z,69.72
2019-06-20T20:08:29.810Z,69.87
2019-06-20T20:10:59.210Z,71.79
2019-06-20T20:13:28.493Z,71.50
2019-06-20T20:15:57.913Z,72.03
2019-06-20T20:18:27.509Z,71.73
2019-06-20T20:20:56.808Z,71.27
2019-06-20T20:23:26.179Z,70.78
2019-06-20T20:25:55.585Z,71.52
2019-06-20T20:28:24.959Z,71.61
2019-06-20T20:30:54.443Z,71.82
2019-06-20T20:33:23.841Z,72.70
2019-06-20T20:35:53.244Z,73.48
2019-06-20T20:38:24.312Z,73.54
2019-06-20T20:40:53.683Z,73.40
2019-06-20T20:43:23.886Z,73.42
2019-06-20T20:45:53.360Z,73.42
2019-06-20T20:48:22.671Z,73.22
2019-06-20T20:50:52.006Z,72.84
2019-06-20T20:53:21.363Z,72.57
2019-06-20T20:55:50.713Z,72.81
2019-06-20T20:58:20.071Z,72.37
2019-06-20T21:05:28.498Z,73.80
2019-06-20T21:09:14.873Z,73.25
2019-06-20T21:15:13.950Z,73.95
2019-06-20T21:17:55.491Z,73.14
2019-06-20T21:20:22.476Z,73.32
2019-06-20T21:22:51.882Z,73.51
2019-06-20T21:25:21.457Z,73.36
2019-06-20T21:27:51.015Z,72.84
2019-06-20T21:30:20.529Z,72.67
2019-06-20T21:32:51.330Z,73.19
2019-06-20T21:35:20.708Z,72.37
2019-06-20T21:37:50.197Z,72.63
2019-06-20T21:40:20.041Z,71.41
2019-06-20T21:42:49.505Z,72.14
2019-06-20T21:45:20.120Z,70.96
2019-06-20T21:47:49.578Z,69.59
2019-06-20T21:50:25.125Z,69.60
2019-06-20T21:52:54.542Z,71.65
2019-06-20T21:55:23.817Z,72.65
2019-06-20T21:57:53.129Z,72.67
2019-06-20T22:00:27.892Z,73.14
2019-06-20T22:02:57.194Z,73.26
2019-06-20T22:05:26.497Z,73.21
2019-06-20T22:07:55.811Z,72.78
2019-06-20T22:10:25.101Z,72.44
2019-06-20T22:12:54.433Z,73.00
2019-06-20T22:15:23.681Z,71.48
2019-06-20T22:17:52.988Z,71.61
2019-06-20T22:20:23.271Z,71.93
2019-06-20T22:22:52.581Z,71.44
2019-06-20T22:25:22.149Z,72.35
2019-06-20T22:27:51.467Z,72.18
2019-06-20T22:30:41.184Z,72.59
2019-06-20T22:33:10.459Z,73.86
2019-06-20T22:35:39.735Z,73.47
2019-06-20T22:38:09.016Z,73.84
2019-06-20T22:40:38.343Z,73.41
2019-06-20T22:43:07.748Z,73.77
2019-06-20T22:45:37.144Z,73.81
2019-06-20T22:48:06.591Z,73.36
2019-06-20T22:50:35.883Z,73.41
2019-06-20T22:53:05.200Z,73.91
2019-06-20T22:55:34.521Z,73.95
2019-06-20T22:58:03.849Z,74.11
2019-06-20T23:00:33.154Z,74.55
2019-06-20T23:03:02.424Z,73.69
2019-06-20T23:05:31.711Z,74.12
2019-06-20T23:08:00.979Z,73.44
2019-06-20T23:10:30.432Z,74.39
2019-06-20T23:12:59.718Z,75.19
2019-06-20T23:15:29.001Z,73.42
2019-06-20T23:17:58.307Z,73.68
2019-06-20T23:20:27.752Z,74.19
2019-06-20T23:22:57.098Z,73.04
2019-06-20T23:25:26.387Z,73.19
2019-06-20T23:27:55.703Z,73.29
2019-06-20T23:30:25.321Z,73.51
2019-06-20T23:32:54.596Z,72.62
2019-06-20T23:35:23.913Z,73.24
2019-06-20T23:37:53.170Z,73.17
2019-06-20T23:40:22.549Z,73.18
2019-06-20T23:42:51.795Z,73.24
2019-06-20T23:45:21.972Z,72.31
2019-06-20T23:47:51.230Z,72.39
2019-06-20T23:50:20.544Z,73.61
2019-06-20T23:52:55.290Z,72.71
2019-06-20T23:55:24.565Z,73.67
2019-06-20T23:57:53.928Z,73.29
